createdAt,value
2023-04-18T00:01:25.544Z,101388.72
2023-04-18T00:06:27.055Z,101387.13
2023-04-18T00:11:28.564Z,101388.56
2023-04-18T00:16:30.528Z,101388.25
2023-04-18T00:21:32.259Z,101388.50
2023-04-18T00:26:33.642Z,101381.72
2023-04-18T00:31:36.174Z,101381.13
2023-04-18T00:36:37.616Z,101387.31
2023-04-18T00:41:39.178Z,101383.19
2023-04-18T00:46:40.687Z,101372.44
2023-04-18T00:51:42.801Z,101378.97
2023-04-18T00:56:47.832Z,101371.63
2023-04-18T01:01:50.208Z,101370.03
2023-04-18T01:06:51.770Z,101365.34
2023-04-18T01:11:53.250Z,101362.94
2023-04-18T01:16:54.729Z,101369.66
2023-04-18T01:21:56.222Z,101369.88
2023-04-18T01:26:58.775Z,101373.47
2023-04-18T01:32:02.643Z,101365.81
2023-04-18T01:37:04.127Z,101365.19
2023-04-18T01:42:07.809Z,101368.59
2023-04-18T01:47:09.246Z,101370.28
2023-04-18T01:52:14.054Z,101358.59
2023-04-18T01:57:15.601Z,101357.38
2023-04-18T02:02:17.158Z,101364.09
2023-04-18T02:07:18.649Z,101356.97
2023-04-18T02:12:20.309Z,101362.47
2023-04-18T02:17:23.449Z,101374.16
2023-04-18T02:22:25.247Z,101368.06
2023-04-18T02:27:26.751Z,101369.72
2023-04-18T02:32:31.527Z,101371.84
2023-04-18T02:37:33.001Z,101368.19
2023-04-18T02:42:34.441Z,101372.06
2023-04-18T02:47:47.040Z,101379.38
2023-04-18T02:52:56.147Z,101375.41
2023-04-18T02:58:02.427Z,101376.69
2023-04-18T03:03:18.935Z,101392.25
2023-04-18T03:08:30.368Z,101389.59
2023-04-18T03:13:33.049Z,101388.41
2023-04-18T03:18:34.777Z,101384.03
2023-04-18T03:23:37.434Z,101386.41
2023-04-18T03:28:40.742Z,101384.75
2023-04-18T03:33:45.488Z,101391.81
2023-04-18T03:38:46.967Z,101396.28
2023-04-18T03:43:48.593Z,101389.53
2023-04-18T03:48:50.447Z,101396.34
2023-04-18T03:53:51.944Z,101401.16
2023-04-18T03:58:53.584Z,101404.44
2023-04-18T04:03:56.950Z,101403.09
2023-04-18T04:08:59.040Z,101403.09
2023-04-18T04:14:02.865Z,101413.34
2023-04-18T04:19:11.406Z,101410.41
2023-04-18T04:24:20.453Z,101417.03
2023-04-18T04:29:23.742Z,101410.56
2023-04-18T04:34:26.764Z,101421.97
2023-04-18T04:39:28.875Z,101425.88
2023-04-18T04:44:50.559Z,101440.69
2023-04-18T04:49:52.609Z,101431.88
2023-04-18T04:54:54.050Z,101439.47
2023-04-18T04:59:58.011Z,101439.00
2023-04-18T05:04:59.760Z,101444.00
2023-04-18T05:10:01.210Z,101450.00
2023-04-18T05:15:02.954Z,101456.38
2023-04-18T05:20:05.684Z,101462.84
2023-04-18T05:25:07.865Z,101462.53
2023-04-18T05:30:09.679Z,101463.88
2023-04-18T05:35:11.093Z,101465.00
2023-04-18T05:40:13.227Z,101457.41
2023-04-18T05:45:14.818Z,101448.66
2023-04-18T05:50:16.319Z,101466.78
2023-04-18T05:55:18.120Z,101466.94
2023-04-18T06:00:19.922Z,101463.16
2023-04-18T06:05:21.579Z,101480.13
2023-04-18T06:10:23.217Z,101476.38
2023-04-18T06:15:24.915Z,101484.59
2023-04-18T06:20:26.404Z,101481.16
2023-04-18T06:25:27.846Z,101488.31
2023-04-18T06:30:29.286Z,101488.41
2023-04-18T06:35:31.282Z,101495.88
2023-04-18T06:40:32.785Z,101494.69
2023-04-18T06:45:34.873Z,101507.50
2023-04-18T06:50:36.347Z,101505.63
2023-04-18T06:55:37.852Z,101512.53
2023-04-18T07:00:39.812Z,101504.19
2023-04-18T07:05:41.429Z,101499.44
2023-04-18T07:10:42.935Z,101503.00
2023-04-18T07:15:44.365Z,101511.50
2023-04-18T07:20:45.795Z,101499.25
2023-04-18T07:25:47.255Z,101501.41
2023-04-18T07:30:48.705Z,101506.81
2023-04-18T07:35:52.696Z,101506.72
2023-04-18T07:40:58.616Z,101515.88
2023-04-18T07:46:00.637Z,101507.44
2023-04-18T07:51:02.802Z,101510.97
2023-04-18T07:56:04.365Z,101513.72
2023-04-18T08:01:06.966Z,101523.31
2023-04-18T08:06:08.766Z,101519.91
2023-04-18T08:11:11.083Z,101521.81
2023-04-18T08:16:14.188Z,101519.72
2023-04-18T08:21:41.935Z,101514.31
2023-04-18T08:26:45.925Z,101502.94
2023-04-18T08:31:47.723Z,101505.88
2023-04-18T08:36:50.890Z,101499.03
2023-04-18T08:42:00.837Z,101511.66
2023-04-18T08:47:02.998Z,101517.47
2023-04-18T08:52:12.319Z,101520.25
2023-04-18T08:57:23.959Z,101526.13
2023-04-18T09:02:42.329Z,101527.44
2023-04-18T09:14:24.791Z,101518.38
2023-04-18T09:19:26.369Z,101520.69
2023-04-18T09:24:28.683Z,101525.69
2023-04-18T09:29:47.461Z,101524.84
2023-04-18T09:34:49.051Z,101522.44
2023-04-18T09:39:53.481Z,101524.53
2023-04-18T09:45:05.273Z,101518.91
2023-04-18T09:50:09.260Z,101517.75
2023-04-18T09:55:17.260Z,101523.56
2023-04-18T10:00:23.753Z,101514.19
2023-04-18T10:05:32.203Z,101521.06
2023-04-18T10:10:33.948Z,101526.06
2023-04-18T10:15:35.634Z,101528.56
2023-04-18T10:20:40.476Z,101528.34
2023-04-18T10:31:57.268Z,101516.31
2023-04-18T10:37:06.004Z,101524.06
2023-04-18T10:42:10.733Z,101524.31
2023-04-18T10:47:15.411Z,101512.66
2023-04-18T10:52:19.792Z,101515.97
2023-04-18T10:57:21.618Z,101515.50
2023-04-18T11:02:29.954Z,101511.31
2023-04-18T11:07:49.102Z,101509.63
2023-04-18T11:12:51.437Z,101502.94
2023-04-18T11:18:37.122Z,101509.63
2023-04-18T11:23:38.588Z,101512.75
2023-04-18T11:28:41.590Z,101497.41
2023-04-18T11:33:48.300Z,101513.97
2023-04-18T11:38:49.952Z,101510.25
2023-04-18T11:43:51.474Z,101511.00
2023-04-18T11:48:53.272Z,101508.88
2023-04-18T11:53:54.916Z,101511.47
2023-04-18T11:58:56.586Z,101511.06
2023-04-18T12:04:04.017Z,101513.69
2023-04-18T12:09:13.812Z,101518.78
2023-04-18T12:14:24.857Z,101514.03
2023-04-18T12:19:28.382Z,101510.84
2023-04-18T12:24:45.027Z,101507.31
2023-04-18T12:29:46.611Z,101515.78
2023-04-18T12:34:51.495Z,101522.59
2023-04-18T12:40:05.108Z,101518.22
2023-04-18T12:45:09.439Z,101522.72
2023-04-18T12:57:04.036Z,101514.38
2023-04-18T13:02:05.697Z,101510.66
2023-04-18T13:07:09.668Z,101515.53
2023-04-18T13:12:11.737Z,101511.94
2023-04-18T13:17:15.492Z,101510.25
2023-04-18T13:22:22.297Z,101511.72
2023-04-18T13:32:52.146Z,101514.72
2023-04-18T13:37:54.154Z,101510.91
2023-04-18T13:42:55.587Z,101515.28
2023-04-18T13:47:57.026Z,101504.06
2023-04-18T13:52:58.523Z,101504.06
2023-04-18T13:58:00.015Z,101503.19
2023-04-18T14:03:01.717Z,101506.19
2023-04-18T14:08:03.959Z,101501.81
2023-04-18T14:13:05.661Z,101507.25
2023-04-18T14:18:07.088Z,101504.06
2023-04-18T14:23:08.518Z,101508.88
2023-04-18T14:28:11.807Z,101508.69
2023-04-18T14:33:13.246Z,101506.00
2023-04-18T14:38:15.420Z,101501.31
2023-04-18T14:43:16.852Z,101496.84
2023-04-18T14:48:18.351Z,101496.94
2023-04-18T14:53:19.872Z,101492.34
2023-04-18T14:58:21.569Z,101496.41
2023-04-18T15:03:23.338Z,101492.78
2023-04-18T15:08:25.163Z,101497.06
2023-04-18T15:13:26.612Z,101495.13
2023-04-18T15:18:28.203Z,101489.06
2023-04-18T15:23:29.612Z,101487.25
2023-04-18T15:28:31.174Z,101495.31
2023-04-18T15:33:32.916Z,101482.84
2023-04-18T15:38:34.421Z,101483.84
2023-04-18T15:43:35.888Z,101491.72
2023-04-18T15:48:37.383Z,101491.84
2023-04-18T15:53:38.804Z,101493.53
2023-04-18T15:58:40.219Z,101490.00
2023-04-18T16:03:42.455Z,101488.75
2023-04-18T16:08:43.901Z,101492.03
2023-04-18T16:13:45.435Z,101478.91
2023-04-18T16:18:46.933Z,101488.75
2023-04-18T16:23:48.828Z,101493.75
2023-04-18T16:28:50.866Z,101490.44
2023-04-18T16:33:52.743Z,101477.84
2023-04-18T16:38:54.378Z,101483.59
2023-04-18T16:43:55.799Z,101484.56
2023-04-18T16:48:57.372Z,101480.06
2023-04-18T16:53:59.063Z,101482.75
2023-04-18T16:59:00.420Z,101492.59
2023-04-18T17:04:02.465Z,101500.66
2023-04-18T17:09:06.249Z,101498.22
2023-04-18T17:14:08.739Z,101499.72
2023-04-18T17:19:10.461Z,101496.31
2023-04-18T17:24:11.964Z,101499.16
2023-04-18T17:29:13.571Z,101505.47
2023-04-18T17:34:15.227Z,101500.34
2023-04-18T17:39:16.910Z,101494.16
2023-04-18T17:44:18.293Z,101496.84
2023-04-18T17:49:20.815Z,101488.09
2023-04-18T17:54:22.252Z,101492.66
2023-04-18T17:59:23.838Z,101489.88
2023-04-18T18:04:26.711Z,101492.66
2023-04-18T18:09:28.412Z,101499.16
2023-04-18T18:14:29.902Z,101497.25
2023-04-18T18:19:31.536Z,101498.63
2023-04-18T18:24:32.909Z,101497.03
2023-04-18T18:29:34.351Z,101490.13
2023-04-18T18:34:36.137Z,101500.78
2023-04-18T18:39:37.666Z,101507.63
2023-04-18T18:44:39.103Z,101506.13
2023-04-18T18:49:40.728Z,101511.97
2023-04-18T18:54:42.183Z,101507.06
2023-04-18T18:59:43.584Z,101514.75
2023-04-18T19:04:45.401Z,101513.91
2023-04-18T19:09:47.040Z,101506.88
2023-04-18T19:14:49.442Z,101509.31
2023-04-18T19:19:51.950Z,101504.19
2023-04-18T19:24:53.417Z,101505.47
2023-04-18T19:29:54.893Z,101504.44
2023-04-18T19:34:56.325Z,101499.63
2023-04-18T19:39:57.746Z,101498.88
2023-04-18T19:45:00.232Z,101499.84
2023-04-18T19:50:01.724Z,101495.56
2023-04-18T19:55:03.160Z,101493.63
2023-04-18T20:00:09.711Z,101493.19
2023-04-18T20:05:14.017Z,101493.75
2023-04-18T20:10:15.429Z,101492.25
2023-04-18T20:15:16.983Z,101489.34
2023-04-18T20:20:18.315Z,101478.69
2023-04-18T20:25:20.319Z,101482.09
2023-04-18T20:30:22.103Z,101477.81
2023-04-18T20:35:23.742Z,101475.81
2023-04-18T20:40:25.551Z,101475.28
2023-04-18T20:45:27.773Z,101479.56
2023-04-18T20:50:29.348Z,101482.09
2023-04-18T20:55:31.035Z,101480.50
2023-04-18T21:00:32.367Z,101477.53
2023-04-18T21:05:33.790Z,101473.25
2023-04-18T21:10:35.264Z,101476.78
2023-04-18T21:15:36.744Z,101471.66
2023-04-18T21:20:38.164Z,101469.31
2023-04-18T21:25:39.574Z,101470.34
2023-04-18T21:30:41.091Z,101467.06
2023-04-18T21:35:42.613Z,101462.78
2023-04-18T21:40:44.046Z,101460.22
2023-04-18T21:45:46.208Z,101453.09
2023-04-18T21:50:53.943Z,101448.16
2023-04-18T21:55:55.400Z,101444.63
2023-04-18T22:00:56.965Z,101443.06
2023-04-18T22:05:58.474Z,101439.72
2023-04-18T22:11:00.286Z,101434.91
2023-04-18T22:16:03.099Z,101434.06
2023-04-18T22:21:04.786Z,101421.06
2023-04-18T22:26:06.208Z,101423.28
2023-04-18T22:31:07.835Z,101416.78
2023-04-18T22:36:09.206Z,101416.03
2023-04-18T22:41:10.699Z,101411.56
2023-04-18T22:46:12.175Z,101416.69
2023-04-18T22:51:18.188Z,101408.69
2023-04-18T22:56:19.790Z,101403.00
2023-04-18T23:01:21.180Z,101412.19
2023-04-18T23:06:23.068Z,101406.66
2023-04-18T23:11:24.894Z,101401.31
2023-04-18T23:16:26.499Z,101404.09
2023-04-18T23:21:28.532Z,101402.19
2023-04-18T23:26:29.932Z,101400.34
2023-04-18T23:31:34.276Z,101388.31
2023-04-18T23:36:36.861Z,101383.94
2023-04-18T23:41:38.307Z,101381.28
2023-04-18T23:46:39.836Z,101380.31
2023-04-18T23:51:41.240Z,101376.25
2023-04-18T23:56:42.670Z,101370.69
